Time;durP1;ratioP1;P1;durP2;ratioP2;P2;SDS_P1;SDS_P2;PMS_P1;PMS_P2;Temp;Humidity;BMP_temperature;BMP_pressure;BME280_temperature;BME280_humidity;BME280_pressure;Samples;Min_cycle;Max_cycle;Signal;HPM_P1;HPM_P2
2021/04/08 00:00:20;;;;;;;4.32;3.15;;;1.00;72.50;;;;;;5056347;28;20041;-46
2021/04/08 00:03:24;;;;;;;5.88;3.30;;;1.00;71.90;;;;;;5068856;28;20037;-46
2021/04/08 00:06:28;;;;;;;4.97;3.35;;;1.00;69.80;;;;;;5067734;28;20048;-48
2021/04/08 00:09:32;;;;;;;9.13;4.78;;;1.00;69.20;;;;;;5062510;28;20032;-50
2021/04/08 00:12:37;;;;;;;5.55;2.40;;;1.10;68.90;;;;;;5057357;28;20490;-49
2021/04/08 00:15:41;;;;;;;8.38;3.00;;;1.00;69.90;;;;;;5059154;28;20037;-47
2021/04/08 00:18:46;;;;;;;10.25;5.40;;;0.80;71.70;;;;;;5064214;28;20029;-47
2021/04/08 00:21:50;;;;;;;10.38;5.85;;;0.70;74.70;;;;;;5056198;28;20048;-51
2021/04/08 00:24:54;;;;;;;8.73;5.20;;;0.60;76.40;;;;;;5059433;28;20048;-50
2021/04/08 00:27:58;;;;;;;9.63;4.75;;;0.50;77.40;;;;;;5071620;28;20045;-47
2021/04/08 00:31:02;;;;;;;9.88;6.88;;;0.40;76.50;;;;;;5071805;28;20032;-47
2021/04/08 00:34:06;;;;;;;13.18;7.15;;;0.40;80.30;;;;;;5071759;28;20028;-47
2021/04/08 00:37:11;;;;;;;13.40;7.65;;;0.40;81.70;;;;;;5071050;28;20040;-47
2021/04/08 00:40:16;;;;;;;11.93;6.70;;;0.30;84.10;;;;;;5071929;28;20414;-48
2021/04/08 00:43:20;;;;;;;9.52;6.03;;;0.20;84.60;;;;;;5071317;28;20040;-47
2021/04/08 00:46:33;;;;;;;15.57;6.40;;;0.10;84.90;;;;;;5071353;28;20048;-49
2021/04/08 00:49:37;;;;;;;9.50;6.20;;;0.00;86.00;;;;;;5071405;28;20052;-47
2021/04/08 00:52:50;;;;;;;9.88;5.97;;;0.00;87.00;;;;;;5070192;28;20024;-46
2021/04/08 00:55:55;;;;;;;10.10;5.10;;;0.00;86.60;;;;;;5070913;28;20044;-46
2021/04/08 00:59:00;;;;;;;11.02;6.47;;;0.00;85.40;;;;;;5071490;28;20513;-46
2021/04/08 01:02:05;;;;;;;12.27;6.75;;;0.00;87.20;;;;;;5071160;28;20258;-46
2021/04/08 01:05:10;;;;;;;10.80;6.40;;;0.10;88.70;;;;;;5060433;28;20052;-48
2021/04/08 01:08:14;;;;;;;11.30;5.78;;;0.10;88.80;;;;;;5071240;28;20519;-47
2021/04/08 01:11:19;;;;;;;11.95;7.00;;;0.10;88.60;;;;;;5071286;28;20040;-46
2021/04/08 01:14:24;;;;;;;10.82;6.38;;;0.10;89.20;;;;;;5071141;28;20052;-48
2021/04/08 01:18:00;;;;;;;16.05;7.13;;;0.20;89.20;;;;;;5070358;28;20044;-47
2021/04/08 01:21:16;;;;;;;8.88;6.00;;;0.20;90.00;;;;;;5061773;28;20044;-48
2021/04/08 01:24:58;;;;;;;15.45;6.95;;;0.10;89.30;;;;;;5060806;28;20033;-46
2021/04/08 01:28:02;;;;;;;9.93;6.55;;;0.00;89.50;;;;;;5060871;28;20044;-47
2021/04/08 01:31:12;;;;;;;15.05;7.63;;;-0.10;90.30;;;;;;5071089;28;20040;-47
2021/04/08 01:34:19;;;;;;;12.30;7.10;;;-0.20;90.50;;;;;;5071304;28;20047;-47
2021/04/08 01:37:30;;;;;;;10.80;5.90;;;-0.20;90.80;;;;;;5070402;28;20036;-47
2021/04/08 01:40:35;;;;;;;9.90;6.15;;;-0.30;90.80;;;;;;5070606;28;20040;-46
2021/04/08 01:43:44;;;;;;;9.30;5.90;;;-0.30;91.10;;;;;;5070461;28;20037;-45
2021/04/08 01:46:52;;;;;;;11.15;6.45;;;-0.30;91.20;;;;;;5069087;28;20048;-46
2021/04/08 01:49:57;;;;;;;9.35;6.47;;;-0.30;91.70;;;;;;5070470;28;20521;-45
2021/04/08 01:53:03;;;;;;;13.05;7.25;;;-0.30;91.90;;;;;;5060531;28;20043;-47
2021/04/08 01:56:10;;;;;;;12.75;7.10;;;-0.40;92.90;;;;;;5069915;28;20036;-46
2021/04/08 01:59:15;;;;;;;11.40;6.80;;;-0.40;93.40;;;;;;5070321;28;20072;-46
2021/04/08 02:02:21;;;;;;;10.93;6.72;;;-0.40;93.60;;;;;;5070063;28;20044;-46
2021/04/08 02:05:26;;;;;;;12.45;6.53;;;-0.50;93.90;;;;;;5069989;28;20051;-49
2021/04/08 02:08:31;;;;;;;10.00;6.40;;;-0.60;94.40;;;;;;5069968;28;20043;-45
2021/04/08 02:11:39;;;;;;;11.23;6.43;;;-0.70;94.70;;;;;;5069952;28;20035;-46
2021/04/08 02:14:45;;;;;;;9.55;5.75;;;-0.70;95.40;;;;;;5070289;28;20051;-46
2021/04/08 02:17:56;;;;;;;9.45;5.25;;;-0.80;95.80;;;;;;5069173;28;20407;-46
2021/04/08 02:21:02;;;;;;;9.25;5.78;;;-0.80;95.60;;;;;;5068741;28;20040;-45
2021/04/08 02:24:11;;;;;;;11.80;6.78;;;-0.80;96.90;;;;;;5070064;28;20043;-46
2021/04/08 02:27:16;;;;;;;15.07;8.27;;;-0.90;97.50;;;;;;5068790;28;20043;-49
2021/04/08 02:30:24;;;;;;;10.18;6.45;;;-0.80;99.30;;;;;;5069399;28;20039;-45
2021/04/08 02:33:30;;;;;;;12.02;7.10;;;-0.80;98.50;;;;;;5069618;28;20044;-45
2021/04/08 02:36:39;;;;;;;14.90;8.60;;;-0.70;98.90;;;;;;5068822;28;20051;-46
2021/04/08 02:39:43;;;;;;;16.33;9.13;;;-0.70;99.90;;;;;;5069649;28;20059;-45
2021/04/08 02:42:48;;;;;;;13.27;9.18;;;-0.80;99.90;;;;;;5059173;28;20043;-47
2021/04/08 02:45:53;;;;;;;18.52;9.23;;;-0.80;99.90;;;;;;5056512;28;20040;-46
2021/04/08 02:48:58;;;;;;;20.27;10.27;;;-0.90;99.90;;;;;;5068958;28;20043;-46
2021/04/08 02:52:05;;;;;;;20.52;10.45;;;-1.00;99.90;;;;;;5069259;28;20521;-48
2021/04/08 02:55:42;;;;;;;14.82;9.98;;;-1.10;99.90;;;;;;5069067;28;20406;-46
2021/04/08 02:58:47;;;;;;;14.77;9.20;;;-1.20;99.90;;;;;;5068502;28;20055;-48
2021/04/08 03:02:10;;;;;;;15.65;9.30;;;-1.30;99.90;;;;;;5069895;28;20043;-47
2021/04/08 03:05:16;;;;;;;17.85;10.25;;;-1.40;99.90;;;;;;5069381;28;20422;-46
2021/04/08 03:08:21;;;;;;;20.52;10.43;;;-1.50;99.90;;;;;;5068472;28;20048;-49
2021/04/08 03:11:35;;;;;;;16.15;9.55;;;-1.50;99.90;;;;;;5056276;28;20039;-50
2021/04/08 03:14:46;;;;;;;17.05;9.43;;;-1.40;99.90;;;;;;5052327;28;20403;-48
2021/04/08 03:17:52;;;;;;;16.75;9.63;;;-1.30;99.90;;;;;;5054348;28;20040;-45
2021/04/08 03:20:57;;;;;;;21.48;10.77;;;-1.30;99.90;;;;;;5052813;28;20044;-46
2021/04/08 03:24:02;;;;;;;18.13;11.13;;;-1.30;99.90;;;;;;5068927;28;20055;-45
2021/04/08 03:27:08;;;;;;;16.08;9.43;;;-1.50;99.90;;;;;;5068569;28;20407;-47
2021/04/08 03:30:13;;;;;;;17.92;9.60;;;-1.60;99.90;;;;;;5056825;28;20048;-47
2021/04/08 03:33:18;;;;;;;17.90;11.13;;;-1.70;99.90;;;;;;5058685;28;20039;-45
2021/04/08 03:36:23;;;;;;;19.23;11.13;;;-1.70;99.90;;;;;;5055650;28;20052;-45
2021/04/08 03:39:28;;;;;;;21.02;10.05;;;-1.80;99.90;;;;;;5068559;28;20051;-51
2021/04/08 03:42:33;;;;;;;14.60;9.38;;;-1.90;99.90;;;;;;5068662;28;20043;-50
2021/04/08 03:45:38;;;;;;;16.65;9.75;;;-1.90;99.90;;;;;;5068759;28;20044;-45
2021/04/08 03:48:44;;;;;;;19.70;11.60;;;-1.90;99.90;;;;;;5058504;28;20051;-45
2021/04/08 03:51:48;;;;;;;20.60;12.27;;;-1.90;99.90;;;;;;5059837;28;20043;-49
2021/04/08 03:54:54;;;;;;;20.83;12.45;;;-1.80;99.90;;;;;;5072822;28;20047;-48
2021/04/08 03:57:58;;;;;;;20.75;12.60;;;-1.90;99.90;;;;;;5072139;28;20052;-48
2021/04/08 04:01:04;;;;;;;22.65;12.57;;;-1.90;99.90;;;;;;5072633;28;20415;-48
2021/04/08 04:04:10;;;;;;;25.08;14.80;;;-1.90;99.90;;;;;;5063689;28;20438;-45
2021/04/08 04:07:15;;;;;;;26.42;14.40;;;-2.00;99.90;;;;;;5060704;28;20064;-45
2021/04/08 04:10:21;;;;;;;23.73;13.82;;;-2.00;99.90;;;;;;5071900;28;20525;-46
2021/04/08 04:13:28;;;;;;;28.77;15.05;;;-2.00;99.90;;;;;;5072408;28;20403;-45
2021/04/08 04:16:38;;;;;;;25.13;13.65;;;-2.00;99.90;;;;;;5072193;28;20403;-46
2021/04/08 04:19:42;;;;;;;25.52;14.43;;;-2.00;99.90;;;;;;5072219;28;20056;-47
2021/04/08 04:22:46;;;;;;;26.60;16.00;;;-2.10;99.90;;;;;;5072187;28;20407;-50
2021/04/08 04:25:50;;;;;;;26.60;15.07;;;-2.10;99.90;;;;;;5058559;28;20066;-49
2021/04/08 04:28:54;;;;;;;29.52;15.82;;;-2.10;99.90;;;;;;5071253;28;20059;-51
2021/04/08 04:31:58;;;;;;;29.95;17.52;;;-2.20;99.90;;;;;;5071524;28;20051;-49
2021/04/08 04:35:03;;;;;;;30.38;17.33;;;-2.00;99.90;;;;;;5072124;28;20616;-47
2021/04/08 04:38:07;;;;;;;31.83;17.58;;;-2.00;99.90;;;;;;5071677;28;20047;-51
2021/04/08 04:41:11;;;;;;;27.40;16.48;;;-2.00;99.90;;;;;;5057084;28;20048;-50
2021/04/08 04:44:15;;;;;;;25.00;14.57;;;-2.00;99.90;;;;;;5064865;28;20548;-47
2021/04/08 04:47:19;;;;;;;24.98;14.25;;;-2.10;99.90;;;;;;5073891;28;20780;-49
2021/04/08 04:50:24;;;;;;;21.02;11.80;;;-2.10;99.90;;;;;;5067819;28;20143;-48
2021/04/08 04:53:28;;;;;;;21.05;11.63;;;-2.10;99.90;;;;;;5057813;28;20518;-47
2021/04/08 04:56:32;;;;;;;20.05;10.40;;;-2.10;99.90;;;;;;5065052;28;20050;-50
2021/04/08 04:59:36;;;;;;;15.60;8.90;;;-2.00;99.90;;;;;;5060907;28;20052;-47
2021/04/08 05:02:40;;;;;;;18.63;9.23;;;-1.90;99.90;;;;;;5058692;28;20032;-48
2021/04/08 05:05:44;;;;;;;16.13;9.55;;;-1.80;99.90;;;;;;5061655;28;20047;-51
2021/04/08 05:08:48;;;;;;;21.42;11.48;;;-1.70;99.90;;;;;;5057993;28;20056;-50
2021/04/08 05:11:52;;;;;;;33.47;16.00;;;-1.60;99.90;;;;;;5055348;28;20060;-50
2021/04/08 05:14:57;;;;;;;34.70;17.17;;;-1.50;99.90;;;;;;5062038;28;20510;-46
2021/04/08 05:18:01;;;;;;;41.50;19.48;;;-1.40;99.90;;;;;;5063953;28;20620;-50
2021/04/08 05:21:06;;;;;;;41.83;20.60;;;-1.30;99.90;;;;;;5067542;28;20675;-46
2021/04/08 05:24:10;;;;;;;34.55;16.05;;;-1.30;99.90;;;;;;5061097;28;20043;-45
2021/04/08 05:27:19;;;;;;;32.20;16.65;;;-1.30;99.90;;;;;;5069472;28;20055;-47
2021/04/08 05:30:24;;;;;;;34.80;17.85;;;-1.30;99.90;;;;;;5068078;28;20706;-48
2021/04/08 05:33:28;;;;;;;41.60;18.65;;;-0.20;99.90;;;;;;5071484;28;20047;-49
2021/04/08 05:36:32;;;;;;;39.10;18.05;;;3.50;99.90;;;;;;5068205;28;20043;-48
2021/04/08 05:39:36;;;;;;;42.03;19.70;;;6.60;99.90;;;;;;5066683;28;20040;-49
2021/04/08 05:42:44;;;;;;;36.22;17.42;;;8.80;94.50;;;;;;5066102;28;20047;-52
2021/04/08 05:45:48;;;;;;;39.38;20.45;;;10.70;91.10;;;;;;5068539;28;20051;-47
2021/04/08 05:48:53;;;;;;;37.95;18.15;;;12.00;84.10;;;;;;5068029;28;20415;-48
2021/04/08 05:51:57;;;;;;;36.85;17.90;;;12.80;80.50;;;;;;5065727;28;20048;-47
2021/04/08 05:55:01;;;;;;;42.33;18.50;;;13.20;76.80;;;;;;5065294;28;20044;-47
2021/04/08 05:58:06;;;;;;;41.38;19.98;;;14.00;73.30;;;;;;5063351;28;20052;-46
2021/04/08 06:01:11;;;;;;;43.40;22.55;;;14.30;71.10;;;;;;5064857;28;20387;-48
2021/04/08 06:04:15;;;;;;;37.22;19.13;;;14.40;69.30;;;;;;5066174;28;20525;-47
2021/04/08 06:07:18;;;;;;;40.25;19.10;;;15.50;67.20;;;;;;5063098;28;20051;-49
2021/04/08 06:10:24;;;;;;;32.47;17.80;;;15.50;64.80;;;;;;5065183;28;20407;-48
2021/04/08 06:13:28;;;;;;;35.78;18.17;;;12.50;66.80;;;;;;5065312;28;20035;-52
2021/04/08 06:16:32;;;;;;;37.53;18.50;;;10.30;70.90;;;;;;5067355;28;20039;-52
2021/04/08 06:19:36;;;;;;;27.30;16.55;;;8.90;74.00;;;;;;5068774;28;20035;-51
2021/04/08 06:22:40;;;;;;;30.13;16.23;;;8.90;77.10;;;;;;5062994;28;20039;-48
2021/04/08 06:25:45;;;;;;;29.38;17.45;;;11.30;72.40;;;;;;5067668;28;20047;-49
2021/04/08 06:28:49;;;;;;;25.15;13.73;;;11.40;70.60;;;;;;5065783;28;20047;-48
2021/04/08 06:31:53;;;;;;;23.63;13.10;;;9.90;73.90;;;;;;5063234;28;20055;-50
2021/04/08 06:34:57;;;;;;;26.73;14.02;;;9.30;74.60;;;;;;5063846;28;20048;-52
2021/04/08 06:38:01;;;;;;;27.02;14.20;;;9.70;75.40;;;;;;5066872;28;20074;-51
2021/04/08 06:41:06;;;;;;;22.85;13.02;;;8.40;77.20;;;;;;5066915;28;20051;-46
2021/04/08 06:44:13;;;;;;;21.80;12.60;;;10.20;73.30;;;;;;5066650;28;20043;-47
2021/04/08 06:47:33;;;;;;;18.05;11.52;;;9.00;73.90;;;;;;5064793;28;20505;-48
2021/04/08 06:50:40;;;;;;;18.42;11.05;;;8.00;76.00;;;;;;5062592;28;20044;-50
2021/04/08 06:53:46;;;;;;;19.92;11.52;;;10.90;72.70;;;;;;5060928;28;20035;-47
2021/04/08 06:56:52;;;;;;;23.35;10.02;;;11.20;68.90;;;;;;5061875;28;20530;-50
2021/04/08 06:59:58;;;;;;;21.20;11.00;;;10.60;68.30;;;;;;5066663;28;20043;-47
2021/04/08 07:03:05;;;;;;;16.98;9.68;;;12.10;67.10;;;;;;5063721;28;20054;-48
2021/04/08 07:06:10;;;;;;;17.70;11.30;;;8.60;71.10;;;;;;5064057;28;20047;-51
2021/04/08 07:09:14;;;;;;;20.92;12.38;;;9.20;72.10;;;;;;5062629;28;20509;-47
2021/04/08 07:12:18;;;;;;;20.95;10.88;;;10.10;69.10;;;;;;5059318;28;20040;-46
2021/04/08 07:15:24;;;;;;;19.73;10.77;;;9.00;70.90;;;;;;5063160;28;20048;-47
2021/04/08 07:18:28;;;;;;;15.23;9.10;;;8.40;73.20;;;;;;5055743;28;20051;-51
2021/04/08 07:21:35;;;;;;;13.35;8.70;;;8.10;72.40;;;;;;5059844;28;20046;-48
2021/04/08 07:24:48;;;;;;;14.73;9.05;;;9.80;70.00;;;;;;5061779;28;20044;-49
2021/04/08 07:27:52;;;;;;;16.25;9.52;;;9.80;67.90;;;;;;5070649;28;20044;-47
2021/04/08 07:30:57;;;;;;;13.70;8.75;;;12.10;66.40;;;;;;5071144;28;20044;-48
2021/04/08 07:34:03;;;;;;;14.93;8.90;;;13.20;64.60;;;;;;5066401;28;20039;-49
2021/04/08 07:37:08;;;;;;;8.98;5.70;;;13.20;62.40;;;;;;5070013;28;20055;-47
2021/04/08 07:40:17;;;;;;;12.55;7.63;;;12.10;59.90;;;;;;5069311;28;20099;-51
2021/04/08 07:43:22;;;;;;;13.52;8.43;;;12.80;60.10;;;;;;5069119;28;20518;-48
2021/04/08 07:46:38;;;;;;;14.70;9.23;;;13.40;61.10;;;;;;5067403;28;20044;-53
2021/04/08 07:49:42;;;;;;;16.85;9.35;;;11.10;63.40;;;;;;5070544;28;20059;-48
2021/04/08 07:52:50;;;;;;;17.33;9.85;;;10.50;63.40;;;;;;5069351;28;20067;-52
2021/04/08 07:55:54;;;;;;;17.25;9.55;;;12.40;62.90;;;;;;5068947;28;20759;-47
2021/04/08 07:59:21;;;;;;;13.95;9.18;;;14.30;59.60;;;;;;5065547;28;20043;-47
2021/04/08 08:02:27;;;;;;;18.58;10.75;;;15.90;57.30;;;;;;5066066;28;20406;-48
2021/04/08 08:05:37;;;;;;;14.48;9.95;;;18.00;54.10;;;;;;5067473;28;20067;-47
2021/04/08 08:08:44;;;;;;;13.38;10.13;;;16.70;55.00;;;;;;5065905;28;20526;-49
2021/04/08 08:11:51;;;;;;;16.90;10.73;;;14.70;53.80;;;;;;5066419;28;20064;-46
2021/04/08 08:15:15;;;;;;;18.42;10.98;;;12.40;55.10;;;;;;5066837;28;20043;-46
2021/04/08 08:18:39;;;;;;;16.13;10.07;;;14.70;56.40;;;;;;5066244;28;20055;-46
2021/04/08 08:21:44;;;;;;;14.52;9.45;;;17.80;52.30;;;;;;5069073;28;20055;-49
2021/04/08 08:24:55;;;;;;;16.92;9.90;;;17.10;49.30;;;;;;5068160;28;20044;-47
2021/04/08 08:28:00;;;;;;;18.98;9.07;;;16.30;52.60;;;;;;5067521;28;20040;-48
2021/04/08 08:31:04;;;;;;;13.50;8.10;;;18.90;49.80;;;;;;5068879;28;20056;-48
2021/04/08 08:34:25;;;;;;;11.07;8.48;;;17.50;50.60;;;;;;5069160;28;20066;-47
2021/04/08 08:37:31;;;;;;;13.07;8.25;;;16.90;50.50;;;;;;5066736;28;20044;-49
2021/04/08 08:40:36;;;;;;;11.20;6.68;;;18.20;49.10;;;;;;5067637;28;20801;-48
2021/04/08 08:43:41;;;;;;;14.30;8.18;;;17.80;47.90;;;;;;5068826;28;20051;-46
2021/04/08 08:47:08;;;;;;;12.85;7.20;;;19.80;47.30;;;;;;5062830;28;20047;-44
2021/04/08 08:50:15;;;;;;;12.65;7.55;;;21.70;45.20;;;;;;5068042;28;20043;-48
2021/04/08 08:53:20;;;;;;;12.88;7.60;;;18.90;46.70;;;;;;5067592;28;20514;-47
2021/04/08 08:56:25;;;;;;;10.88;7.78;;;21.00;44.70;;;;;;5066000;28;20051;-48
2021/04/08 08:59:30;;;;;;;12.85;7.32;;;21.90;45.00;;;;;;5051378;28;20044;-50
2021/04/08 09:02:56;;;;;;;9.55;6.15;;;18.60;45.10;;;;;;5055552;28;20047;-47
2021/04/08 09:06:21;;;;;;;10.52;6.15;;;19.60;42.90;;;;;;5057358;28;20040;-45
2021/04/08 09:09:39;;;;;;;9.55;5.80;;;22.40;41.90;;;;;;5067370;28;20044;-45
2021/04/08 09:12:56;;;;;;;9.30;6.28;;;23.80;40.00;;;;;;5066518;28;20047;-45
2021/04/08 09:16:02;;;;;;;9.70;6.05;;;23.10;39.80;;;;;;5060194;28;20533;-47
2021/04/08 09:19:08;;;;;;;11.02;5.80;;;25.80;37.60;;;;;;5059745;28;20038;-48
2021/04/08 09:22:13;;;;;;;8.77;4.90;;;22.30;39.60;;;;;;5066157;28;20047;-48
2021/04/08 09:25:20;;;;;;;10.50;5.93;;;23.70;40.20;;;;;;5066833;28;20127;-51
2021/04/08 09:28:30;;;;;;;7.88;5.10;;;24.50;38.10;;;;;;5062549;28;20044;-47
2021/04/08 09:31:35;;;;;;;9.50;5.20;;;23.10;38.00;;;;;;5063338;28;20040;-45
2021/04/08 09:35:05;;;;;;;8.52;5.55;;;25.90;37.00;;;;;;5063837;28;20041;-46
2021/04/08 09:38:09;;;;;;;5.93;3.83;;;25.00;36.20;;;;;;5066175;28;20039;-47
2021/04/08 09:41:13;;;;;;;5.45;3.70;;;28.30;34.80;;;;;;5060723;28;20041;-44
2021/04/08 09:44:18;;;;;;;5.57;3.65;;;30.80;33.40;;;;;;5065904;28;20040;-46
2021/04/08 09:47:33;;;;;;;7.00;3.83;;;31.90;32.10;;;;;;5058177;28;20406;-49
2021/04/08 09:50:50;;;;;;;4.28;3.08;;;33.10;31.10;;;;;;5061419;28;20050;-48
2021/04/08 09:53:54;;;;;;;7.93;3.35;;;33.90;30.10;;;;;;5064803;28;20033;-50
2021/04/08 09:56:58;;;;;;;4.70;3.03;;;32.10;30.50;;;;;;5058448;28;20044;-49
2021/04/08 10:00:09;;;;;;;4.72;2.75;;;32.60;30.40;;;;;;5068123;28;20055;-46
2021/04/08 10:03:36;;;;;;;4.78;2.30;;;33.60;30.60;;;;;;5060444;28;20035;-47
2021/04/08 10:06:41;;;;;;;8.68;2.70;;;34.50;30.50;;;;;;5062680;28;20783;-47
2021/04/08 10:09:54;;;;;;;5.07;2.97;;;34.10;30.40;;;;;;5066519;28;20051;-52
2021/04/08 10:12:58;;;;;;;5.07;2.58;;;30.80;29.00;;;;;;5064988;28;20422;-48
2021/04/08 10:16:09;;;;;;;5.28;2.92;;;25.60;32.70;;;;;;5065190;28;20069;-46
2021/04/08 10:19:13;;;;;;;;;;;25.20;33.80;;;;;;5061331;28;20059;-48
2021/04/08 10:22:17;;;;;;;5.07;2.65;;;26.60;34.80;;;;;;5066785;28;20220;-45
2021/04/08 10:25:22;;;;;;;6.65;2.95;;;28.60;33.70;;;;;;5067927;28;20040;-46
2021/04/08 10:28:47;;;;;;;4.68;2.20;;;27.10;32.00;;;;;;5062163;28;20044;-48
2021/04/08 10:31:51;;;;;;;4.20;2.70;;;25.90;35.20;;;;;;5066301;28;20052;-52
2021/04/08 10:34:56;;;;;;;5.40;2.75;;;23.30;34.50;;;;;;5063295;28;20052;-46
2021/04/08 10:38:06;;;;;;;3.20;2.20;;;27.90;35.80;;;;;;5064239;28;20052;-47
2021/04/08 10:41:11;;;;;;;2.85;2.13;;;30.00;33.00;;;;;;5067494;28;20553;-49
2021/04/08 10:44:24;;;;;;;4.45;2.25;;;29.60;32.80;;;;;;5066195;28;20246;-48
2021/04/08 10:47:33;;;;;;;6.15;2.75;;;29.40;33.90;;;;;;5066423;28;20048;-46
2021/04/08 10:50:37;;;;;;;5.75;2.75;;;29.80;32.90;;;;;;5062541;28;20051;-47
2021/04/08 10:53:46;;;;;;;3.08;2.08;;;28.90;34.40;;;;;;5063776;28;20043;-46
2021/04/08 10:56:54;;;;;;;3.30;2.05;;;27.10;34.30;;;;;;5062778;28;20399;-44
2021/04/08 10:59:59;;;;;;;4.22;1.95;;;26.60;35.50;;;;;;5061766;28;20052;-46
2021/04/08 11:03:03;;;;;;;3.97;2.15;;;27.20;34.70;;;;;;5058699;28;21404;-48
2021/04/08 11:06:22;;;;;;;3.53;1.73;;;21.40;37.00;;;;;;5064972;28;20059;-46
2021/04/08 11:09:28;;;;;;;3.90;1.90;;;23.50;39.30;;;;;;5065601;28;20049;-47
2021/04/08 11:12:32;;;;;;;3.92;1.73;;;26.80;36.60;;;;;;5057635;28;20044;-45
2021/04/08 11:15:39;;;;;;;5.18;1.73;;;27.00;35.70;;;;;;5055202;28;20530;-48
2021/04/08 11:18:45;;;;;;;4.00;1.88;;;25.50;35.60;;;;;;5065675;28;20045;-51
2021/04/08 11:21:51;;;;;;;4.20;2.53;;;23.40;37.30;;;;;;5069197;28;20051;-48
2021/04/08 11:24:57;;;;;;;8.77;2.88;;;22.50;38.90;;;;;;5054962;28;20063;-46
2021/04/08 11:28:05;;;;;;;1.95;1.40;;;24.90;36.40;;;;;;5069285;28;20043;-48
2021/04/08 11:31:12;;;;;;;2.20;1.33;;;23.80;36.40;;;;;;5072557;28;20045;-49
2021/04/08 11:34:54;;;;;;;2.47;1.65;;;23.00;37.30;;;;;;5069132;28;20033;-45
2021/04/08 11:38:19;;;;;;;4.93;1.63;;;23.30;37.70;;;;;;5054473;28;20039;-46
2021/04/08 11:41:42;;;;;;;3.45;1.80;;;25.20;37.30;;;;;;5065323;28;20033;-48
2021/04/08 11:44:47;;;;;;;3.72;1.88;;;28.00;35.10;;;;;;5062484;28;20044;-48
2021/04/08 11:48:04;;;;;;;3.95;2.03;;;26.50;34.60;;;;;;5059954;28;20063;-48
2021/04/08 11:51:09;;;;;;;3.97;1.58;;;25.20;35.40;;;;;;5064167;28;20040;-47
2021/04/08 11:54:16;;;;;;;4.38;2.22;;;26.10;34.90;;;;;;5073848;28;20040;-49
2021/04/08 11:57:21;;;;;;;4.75;2.33;;;25.70;35.50;;;;;;5064173;28;20039;-48
2021/04/08 12:00:28;;;;;;;4.65;2.40;;;24.90;36.60;;;;;;5067221;28;20048;-50
2021/04/08 12:03:37;;;;;;;3.58;2.13;;;25.60;35.60;;;;;;5053599;28;20056;-49
2021/04/08 12:06:47;;;;;;;6.13;2.95;;;27.50;34.70;;;;;;5060091;28;20055;-50
2021/04/08 12:09:51;;;;;;;5.05;2.30;;;29.20;34.20;;;;;;5064160;28;20040;-51
2021/04/08 12:13:07;;;;;;;6.47;2.47;;;24.10;35.80;;;;;;5069195;28;20043;-47
2021/04/08 12:16:25;;;;;;;5.32;2.13;;;22.40;39.10;;;;;;5068393;28;20057;-52
2021/04/08 12:19:30;;;;;;;5.90;2.55;;;23.50;38.00;;;;;;5065695;28;20373;-51
2021/04/08 12:22:34;;;;;;;4.85;2.05;;;24.00;36.40;;;;;;5055306;28;20044;-49
2021/04/08 12:25:44;;;;;;;4.97;1.67;;;23.80;39.30;;;;;;5068675;28;20044;-49
2021/04/08 12:28:49;;;;;;;4.70;1.60;;;26.10;36.50;;;;;;5070248;28;20039;-52
2021/04/08 12:31:55;;;;;;;3.08;1.80;;;25.90;37.20;;;;;;5050899;28;20044;-50
2021/04/08 12:34:59;;;;;;;6.18;1.83;;;27.00;36.70;;;;;;5061953;28;20043;-49
2021/04/08 12:38:05;;;;;;;3.85;2.40;;;26.60;36.70;;;;;;5057488;28;20048;-51
2021/04/08 12:41:09;;;;;;;4.07;1.95;;;24.20;38.30;;;;;;5053805;28;20045;-50
2021/04/08 12:44:13;;;;;;;4.93;2.50;;;23.70;37.80;;;;;;5063963;28;20052;-52
2021/04/08 12:47:19;;;;;;;3.97;2.53;;;20.70;40.20;;;;;;5060310;28;20143;-49
2021/04/08 12:50:24;;;;;;;4.15;2.00;;;23.30;40.00;;;;;;5046705;28;20542;-50
2021/04/08 12:53:29;;;;;;;5.80;2.30;;;23.60;38.20;;;;;;5064309;28;20549;-48
2021/04/08 12:56:33;;;;;;;4.88;1.90;;;23.90;39.00;;;;;;5062479;28;20049;-50
2021/04/08 12:59:38;;;;;;;2.88;1.70;;;23.50;39.00;;;;;;5064769;28;20123;-53
2021/04/08 13:02:43;;;;;;;6.05;1.70;;;23.30;40.20;;;;;;5055681;28;20519;-47
2021/04/08 13:05:47;;;;;;;3.45;1.70;;;25.00;39.50;;;;;;5063715;28;20438;-52
2021/04/08 13:08:52;;;;;;;5.57;1.52;;;27.20;38.00;;;;;;5052323;28;20059;-50
2021/04/08 13:11:56;;;;;;;7.05;1.42;;;28.50;37.20;;;;;;5056097;28;20053;-52
2021/04/08 13:15:00;;;;;;;4.70;1.85;;;27.10;35.80;;;;;;5067342;28;20516;-47
2021/04/08 13:18:05;;;;;;;5.47;2.00;;;22.80;38.90;;;;;;5054927;28;20040;-47
2021/04/08 13:21:10;;;;;;;4.63;2.08;;;20.80;42.60;;;;;;5049976;28;20043;-51
2021/04/08 13:24:14;;;;;;;3.97;1.75;;;19.70;44.00;;;;;;5067425;28;20101;-48
2021/04/08 13:27:18;;;;;;;5.75;2.35;;;19.60;44.70;;;;;;5065674;28;20039;-52
2021/04/08 13:30:25;;;;;;;5.70;4.05;;;21.70;42.80;;;;;;5067881;28;20343;-46
2021/04/08 13:33:29;;;;;;;4.15;1.70;;;22.60;41.70;;;;;;5065778;28;20025;-49
2021/04/08 13:36:34;;;;;;;2.92;1.60;;;23.60;40.70;;;;;;5066703;28;20047;-50
2021/04/08 13:39:38;;;;;;;3.35;1.85;;;24.10;40.20;;;;;;5069059;28;20041;-47
2021/04/08 13:42:43;;;;;;;3.70;1.50;;;24.20;39.40;;;;;;5067202;28;20060;-48
2021/04/08 13:45:47;;;;;;;9.40;3.15;;;20.80;41.00;;;;;;5066664;28;20051;-46
2021/04/08 13:48:51;;;;;;;2.70;1.48;;;18.70;43.10;;;;;;5058818;28;20048;-48
2021/04/08 13:51:57;;;;;;;4.38;1.67;;;19.10;43.60;;;;;;5051310;28;20064;-48
2021/04/08 13:55:02;;;;;;;2.78;1.40;;;21.10;43.30;;;;;;5061512;28;20518;-48
2021/04/08 13:58:06;;;;;;;4.18;1.20;;;22.10;42.60;;;;;;5063244;28;20529;-49
2021/04/08 14:01:10;;;;;;;3.75;1.83;;;21.70;43.00;;;;;;5051142;28;20510;-46
2021/04/08 14:04:14;;;;;;;4.22;1.90;;;20.20;42.80;;;;;;5057572;28;20630;-47
2021/04/08 14:07:18;;;;;;;5.00;1.98;;;18.30;46.60;;;;;;5054093;28;20047;-46
2021/04/08 14:10:22;;;;;;;6.20;2.35;;;17.40;48.90;;;;;;5054659;28;20064;-51
2021/04/08 14:13:28;;;;;;;6.75;1.85;;;17.30;49.80;;;;;;5066886;28;20040;-50
2021/04/08 14:16:32;;;;;;;5.38;1.95;;;18.50;48.70;;;;;;5056222;28;20047;-50
2021/04/08 14:19:36;;;;;;;4.28;2.03;;;17.80;47.40;;;;;;5061354;28;20053;-47
2021/04/08 14:22:40;;;;;;;5.75;2.00;;;17.50;50.30;;;;;;5065916;28;20047;-50
2021/04/08 14:25:45;;;;;;;3.83;1.77;;;17.50;50.50;;;;;;5067032;28;20035;-48
2021/04/08 14:28:49;;;;;;;3.78;1.60;;;18.20;50.30;;;;;;5069106;28;20048;-46
2021/04/08 14:31:53;;;;;;;2.90;1.60;;;18.00;51.20;;;;;;5067426;28;20052;-46
2021/04/08 14:34:57;;;;;;;6.45;1.73;;;17.50;49.60;;;;;;5068231;28;20403;-46
2021/04/08 14:38:01;;;;;;;3.50;1.42;;;17.60;51.70;;;;;;5058003;28;20045;-48
2021/04/08 14:41:05;;;;;;;4.22;1.58;;;17.70;51.70;;;;;;5055195;28;20049;-47
2021/04/08 14:44:09;;;;;;;3.58;1.88;;;16.40;51.90;;;;;;5068178;28;20043;-47
2021/04/08 14:47:13;;;;;;;5.57;1.58;;;16.40;54.70;;;;;;5068068;28;20036;-46
2021/04/08 14:50:18;;;;;;;3.10;1.58;;;17.00;54.10;;;;;;5061099;28;20044;-46
2021/04/08 14:53:22;;;;;;;2.95;1.40;;;17.20;53.60;;;;;;5067756;28;20045;-48
2021/04/08 14:56:26;;;;;;;5.78;1.45;;;17.10;54.60;;;;;;5054143;28;20051;-47
2021/04/08 14:59:30;;;;;;;5.55;1.35;;;17.20;54.40;;;;;;5068330;28;20039;-47
2021/04/08 15:02:34;;;;;;;1.90;1.10;;;17.30;53.20;;;;;;5067489;28;20443;-46
2021/04/08 15:05:39;;;;;;;5.03;1.73;;;17.00;53.60;;;;;;5067904;28;20529;-47
2021/04/08 15:08:43;;;;;;;3.88;1.40;;;16.70;54.10;;;;;;5058057;28;20028;-48
2021/04/08 15:11:47;;;;;;;3.65;1.40;;;16.50;53.20;;;;;;5067042;28;20043;-48
2021/04/08 15:14:50;;;;;;;4.05;1.10;;;16.40;53.90;;;;;;5055857;28;20043;-46
2021/04/08 15:17:54;;;;;;;2.70;1.23;;;16.20;53.40;;;;;;5068657;28;20040;-47
2021/04/08 15:20:59;;;;;;;9.85;1.70;;;16.10;52.50;;;;;;5067896;28;20111;-48
2021/04/08 15:24:04;;;;;;;1.90;1.02;;;15.90;52.50;;;;;;5067759;28;20051;-48
2021/04/08 15:27:08;;;;;;;2.38;1.00;;;15.70;51.50;;;;;;5066976;28;20048;-46
2021/04/08 15:30:16;;;;;;;2.67;1.20;;;15.40;52.80;;;;;;5067662;28;20518;-48
2021/04/08 15:33:22;;;;;;;3.10;1.10;;;15.30;53.60;;;;;;5067382;28;20047;-46
2021/04/08 15:36:26;;;;;;;3.72;1.30;;;15.30;54.20;;;;;;5057520;28;20529;-46
2021/04/08 15:39:29;;;;;;;6.13;1.15;;;15.40;55.30;;;;;;5055751;28;20039;-48
2021/04/08 15:42:34;;;;;;;6.70;1.08;;;15.40;55.00;;;;;;5067372;28;20411;-47
2021/04/08 15:45:39;;;;;;;7.60;1.73;;;15.10;53.40;;;;;;5067898;28;20419;-49
2021/04/08 15:48:44;;;;;;;4.15;1.40;;;14.30;53.30;;;;;;5068539;28;20052;-47
2021/04/08 15:51:48;;;;;;;5.05;1.10;;;14.40;53.10;;;;;;5068213;28;20533;-45
2021/04/08 15:54:52;;;;;;;5.47;1.50;;;14.60;53.40;;;;;;5058986;28;20051;-46
2021/04/08 15:57:56;;;;;;;8.95;2.15;;;14.60;53.90;;;;;;5069571;28;20048;-47
2021/04/08 16:01:00;;;;;;;6.03;1.65;;;14.70;54.70;;;;;;5071272;28;20122;-46
2021/04/08 16:04:05;;;;;;;4.43;1.42;;;14.60;54.60;;;;;;5071088;28;20048;-48